Time;durP1;ratioP1;P1;durP2;ratioP2;P2;SDS_P1;SDS_P2;PMS_P1;PMS_P2;Temp;Humidity;BMP_temperature;BMP_pressure;BME280_temperature;BME280_humidity;BME280_pressure;Samples;Min_cycle;Max_cycle;Signal;HPM_P1;HPM_P2
2022/04/12 00:00:58;;;;;;;6.10;3.38;;;;;;;;;;5056038;28;20110;-77
2022/04/12 00:03:25;;;;;;;5.72;3.70;;;;;;;;;;5055820;28;20059;-77
2022/04/12 00:05:51;;;;;;;8.23;3.65;;;;;;;;;;5055756;28;20426;-76
2022/04/12 00:08:18;;;;;;;6.63;3.75;;;;;;;;;;5055992;28;20017;-77
2022/04/12 00:10:44;;;;;;;5.65;3.63;;;;;;;;;;5055594;28;20025;-77
2022/04/12 00:13:10;;;;;;;6.50;3.88;;;;;;;;;;5055635;28;20084;-77
2022/04/12 00:15:36;;;;;;;6.32;3.63;;;;;;;;;;5055432;28;20353;-77
2022/04/12 00:20:47;;;;;;;;;;;;;;;;;;5056035;28;20091;-77
2022/04/12 00:23:14;;;;;;;5.07;3.67;;;;;;;;;;5055488;28;20306;-77
2022/04/12 00:25:43;;;;;;;5.15;3.60;;;;;;;;;;5055304;28;20076;-77
2022/04/12 00:28:09;;;;;;;3.05;2.30;;;;;;;;;;5055561;28;20017;-77
2022/04/12 00:30:36;;;;;;;4.22;2.17;;;;;;;;;;5055243;28;20025;-77
2022/04/12 00:33:02;;;;;;;3.70;2.60;;;;;;;;;;5055354;28;20017;-77
2022/04/12 00:35:28;;;;;;;3.63;2.50;;;;;;;;;;5055186;28;20024;-77
2022/04/12 00:37:54;;;;;;;3.67;1.95;;;;;;;;;;5055301;28;20029;-77
2022/04/12 00:40:21;;;;;;;4.20;2.13;;;;;;;;;;5055003;28;20028;-77
2022/04/12 00:42:48;;;;;;;4.25;2.47;;;;;;;;;;5055221;28;20036;-77
2022/04/12 00:45:15;;;;;;;4.18;2.30;;;;;;;;;;5055239;28;20021;-77
2022/04/12 00:47:41;;;;;;;4.50;2.63;;;;;;;;;;5054992;28;20048;-77
2022/04/12 00:50:11;;;;;;;3.95;2.50;;;;;;;;;;5055196;28;20028;-78
2022/04/12 00:52:48;;;;;;;8.40;3.72;;;;;;;;;;5053492;28;20080;-76
2022/04/12 00:55:14;;;;;;;7.43;4.07;;;;;;;;;;5054914;28;20147;-77
2022/04/12 00:57:41;;;;;;;8.07;4.47;;;;;;;;;;5055001;28;20029;-77
2022/04/12 01:00:08;;;;;;;7.68;4.43;;;;;;;;;;5054823;28;20047;-77
2022/04/12 01:02:35;;;;;;;8.77;4.63;;;;;;;;;;5054653;28;20021;-77
2022/04/12 01:05:01;;;;;;;10.60;6.03;;;;;;;;;;5054853;28;20096;-77
2022/04/12 01:07:28;;;;;;;13.68;8.30;;;;;;;;;;5054498;28;20017;-76
2022/04/12 01:09:55;;;;;;;11.73;7.25;;;;;;;;;;5053875;28;20082;-77
2022/04/12 01:12:22;;;;;;;7.70;5.00;;;;;;;;;;5053932;28;20108;-77
2022/04/12 01:14:48;;;;;;;5.10;3.47;;;;;;;;;;5054640;28;20025;-77
2022/04/12 01:17:18;;;;;;;4.60;2.92;;;;;;;;;;5054556;28;20029;-77
2022/04/12 01:19:44;;;;;;;7.30;4.75;;;;;;;;;;5054460;28;20522;-77
2022/04/12 01:22:13;;;;;;;6.32;3.83;;;;;;;;;;5054517;28;20040;-77
2022/04/12 01:24:39;;;;;;;5.28;3.67;;;;;;;;;;5054537;28;20021;-77
2022/04/12 01:27:05;;;;;;;3.88;3.00;;;;;;;;;;5054369;28;20025;-77
2022/04/12 01:29:33;;;;;;;3.95;2.30;;;;;;;;;;5054035;28;20392;-77
2022/04/12 01:32:02;;;;;;;2.60;2.33;;;;;;;;;;5054290;28;20025;-77
2022/04/12 01:34:28;;;;;;;3.35;2.40;;;;;;;;;;5053997;28;20205;-77
2022/04/12 01:36:54;;;;;;;2.95;2.20;;;;;;;;;;5054323;28;20049;-77
2022/04/12 01:39:20;;;;;;;4.00;2.20;;;;;;;;;;5053882;28;20024;-77
2022/04/12 01:41:47;;;;;;;5.03;2.65;;;;;;;;;;5054148;28;20024;-77
2022/04/12 01:44:13;;;;;;;5.05;2.83;;;;;;;;;;5054058;28;20025;-77
2022/04/12 01:46:39;;;;;;;3.83;2.20;;;;;;;;;;5053943;28;20087;-77
2022/04/12 01:49:05;;;;;;;3.25;2.15;;;;;;;;;;5054006;28;20029;-77
2022/04/12 01:51:31;;;;;;;3.20;2.42;;;;;;;;;;5053742;28;20025;-77
2022/04/12 01:53:57;;;;;;;2.97;1.98;;;;;;;;;;5053961;28;20103;-77
2022/04/12 01:56:24;;;;;;;3.90;1.95;;;;;;;;;;5053610;28;20033;-77
2022/04/12 01:58:50;;;;;;;3.22;2.08;;;;;;;;;;5053623;28;20044;-77
2022/04/12 02:01:16;;;;;;;3.65;2.10;;;;;;;;;;5052474;28;20370;-77
2022/04/12 02:03:42;;;;;;;4.75;3.47;;;;;;;;;;5053554;28;20021;-77
2022/04/12 02:06:09;;;;;;;5.03;2.92;;;;;;;;;;5053667;28;20022;-77
2022/04/12 02:08:36;;;;;;;6.00;3.55;;;;;;;;;;5053424;28;20529;-77
2022/04/12 02:11:02;;;;;;;3.92;2.33;;;;;;;;;;5053566;28;20052;-77
2022/04/12 02:13:28;;;;;;;5.28;2.78;;;;;;;;;;5053328;28;20063;-77
2022/04/12 02:15:57;;;;;;;5.47;2.47;;;;;;;;;;5053390;28;20025;-77
2022/04/12 02:18:23;;;;;;;4.95;2.65;;;;;;;;;;5053321;28;20438;-77
2022/04/12 02:20:49;;;;;;;3.75;2.28;;;;;;;;;;5053239;28;20021;-77
2022/04/12 02:23:15;;;;;;;3.85;2.45;;;;;;;;;;5051690;28;20442;-77
2022/04/12 02:25:41;;;;;;;5.93;3.15;;;;;;;;;;5053000;28;20024;-77
2022/04/12 02:28:07;;;;;;;5.45;3.47;;;;;;;;;;5053187;28;20431;-77
2022/04/12 02:30:33;;;;;;;4.85;2.50;;;;;;;;;;5053058;28;20020;-77
2022/04/12 02:33:00;;;;;;;3.78;2.38;;;;;;;;;;5052909;28;20021;-77
2022/04/12 02:35:26;;;;;;;2.75;2.00;;;;;;;;;;5053211;28;20071;-77
2022/04/12 02:37:52;;;;;;;4.40;2.35;;;;;;;;;;5052955;28;20021;-76
2022/04/12 02:40:18;;;;;;;4.63;2.53;;;;;;;;;;5052954;28;20029;-77
2022/04/12 02:42:44;;;;;;;4.80;2.67;;;;;;;;;;5052580;28;20104;-77
2022/04/12 02:45:10;;;;;;;4.80;2.67;;;;;;;;;;5052915;28;20203;-77
2022/04/12 02:47:37;;;;;;;6.97;3.08;;;;;;;;;;5052074;28;20025;-77
2022/04/12 02:50:03;;;;;;;5.28;3.08;;;;;;;;;;5052185;28;20020;-77
2022/04/12 02:52:29;;;;;;;5.53;3.13;;;;;;;;;;5052033;28;20498;-77
2022/04/12 02:54:55;;;;;;;4.22;2.92;;;;;;;;;;5049440;28;20158;-76
2022/04/12 02:57:21;;;;;;;6.78;4.28;;;;;;;;;;5052718;28;20029;-77
2022/04/12 02:59:47;;;;;;;5.13;4.22;;;;;;;;;;5052207;28;20099;-77
2022/04/12 03:02:14;;;;;;;5.85;4.45;;;;;;;;;;5052616;28;20116;-77
2022/04/12 03:04:40;;;;;;;3.63;2.88;;;;;;;;;;5052552;28;20025;-77
2022/04/12 03:07:07;;;;;;;4.18;2.90;;;;;;;;;;5052484;28;20029;-77
2022/04/12 03:09:33;;;;;;;4.45;3.08;;;;;;;;;;5051296;28;20431;-77
2022/04/12 03:11:59;;;;;;;8.35;3.10;;;;;;;;;;5052155;28;20032;-77
2022/04/12 03:14:25;;;;;;;4.45;2.72;;;;;;;;;;5052462;28;20029;-77
2022/04/12 03:16:51;;;;;;;5.07;3.10;;;;;;;;;;5052280;28;20021;-77
2022/04/12 03:19:17;;;;;;;5.78;4.25;;;;;;;;;;5052406;28;20036;-77
2022/04/12 03:21:44;;;;;;;5.57;3.45;;;;;;;;;;5052274;28;20028;-77
2022/04/12 03:24:10;;;;;;;9.02;4.15;;;;;;;;;;5052305;28;20015;-77
2022/04/12 03:26:36;;;;;;;9.88;4.75;;;;;;;;;;5052025;28;20025;-77
2022/04/12 03:29:03;;;;;;;12.43;5.90;;;;;;;;;;5052049;28;20017;-77
2022/04/12 03:31:29;;;;;;;20.25;9.27;;;;;;;;;;5052354;28;20021;-77
2022/04/12 03:33:55;;;;;;;24.58;10.13;;;;;;;;;;5053374;28;20032;-77
2022/04/12 03:36:21;;;;;;;15.63;8.50;;;;;;;;;;5056429;28;20032;-77
2022/04/12 03:38:50;;;;;;;30.38;13.82;;;;;;;;;;5056307;28;20031;-77
2022/04/12 03:41:19;;;;;;;38.88;16.83;;;;;;;;;;5056358;28;20025;-77
2022/04/12 03:43:46;;;;;;;53.40;21.85;;;;;;;;;;5056185;28;20022;-77
2022/04/12 03:46:12;;;;;;;50.53;21.48;;;;;;;;;;5056070;28;20029;-77
2022/04/12 03:48:38;;;;;;;49.20;20.58;;;;;;;;;;5056283;28;20103;-77
2022/04/12 03:51:04;;;;;;;33.33;16.35;;;;;;;;;;5055347;28;20032;-77
2022/04/12 03:53:31;;;;;;;33.50;15.60;;;;;;;;;;5047154;28;20033;-77
2022/04/12 03:55:57;;;;;;;22.35;11.38;;;;;;;;;;5055078;28;20082;-77
2022/04/12 03:58:23;;;;;;;28.42;14.65;;;;;;;;;;5055189;28;20033;-77
2022/04/12 04:00:50;;;;;;;38.97;18.60;;;;;;;;;;5054972;28;20024;-77
2022/04/12 04:03:17;;;;;;;53.30;22.95;;;;;;;;;;5054413;28;20025;-77
2022/04/12 04:05:44;;;;;;;43.55;19.45;;;;;;;;;;5055903;28;20044;-76
2022/04/12 04:08:11;;;;;;;63.60;30.70;;;;;;;;;;5054874;28;20040;-77
2022/04/12 04:10:43;;;;;;;66.85;29.77;;;;;;;;;;5053136;28;20108;-78
2022/04/12 04:13:11;;;;;;;65.35;31.58;;;;;;;;;;5048992;28;20025;-76
2022/04/12 04:15:40;;;;;;;54.67;25.52;;;;;;;;;;5035887;28;20117;-76
2022/04/12 04:18:07;;;;;;;58.42;25.58;;;;;;;;;;5040508;28;20013;-76
2022/04/12 04:20:33;;;;;;;94.35;37.63;;;;;;;;;;5055032;28;20025;-76
2022/04/12 04:22:59;;;;;;;62.10;28.02;;;;;;;;;;5046212;28;20029;-77
2022/04/12 04:25:26;;;;;;;39.22;19.92;;;;;;;;;;5055213;28;20021;-76
2022/04/12 04:27:52;;;;;;;34.17;16.17;;;;;;;;;;5054493;28;20487;-78
2022/04/12 04:30:19;;;;;;;34.35;18.27;;;;;;;;;;5055164;28;20036;-77
2022/04/12 04:32:46;;;;;;;49.20;25.25;;;;;;;;;;5054985;28;20037;-81
2022/04/12 04:35:12;;;;;;;57.13;29.75;;;;;;;;;;5054529;28;20025;-79
2022/04/12 04:37:45;;;;;;;51.15;29.20;;;;;;;;;;5055429;28;20029;-81
2022/04/12 04:40:14;;;;;;;43.70;24.63;;;;;;;;;;5055219;28;20048;-80
2022/04/12 04:42:40;;;;;;;40.47;21.13;;;;;;;;;;5055359;28;20392;-81
2022/04/12 04:45:07;;;;;;;38.53;17.60;;;;;;;;;;5054746;28;20029;-81
2022/04/12 04:47:34;;;;;;;17.58;10.32;;;;;;;;;;5055378;28;20100;-83
2022/04/12 04:50:01;;;;;;;16.65;8.82;;;;;;;;;;5054889;28;20108;-80
2022/04/12 04:52:27;;;;;;;15.05;8.18;;;;;;;;;;5054707;28;20036;-81
2022/04/12 04:54:53;;;;;;;16.75;8.25;;;;;;;;;;5053392;28;20542;-81
2022/04/12 04:57:19;;;;;;;15.27;9.60;;;;;;;;;;5054757;28;20025;-79
2022/04/12 04:59:45;;;;;;;16.65;10.48;;;;;;;;;;5054694;28;20049;-79
2022/04/12 05:02:12;;;;;;;14.32;9.07;;;;;;;;;;5054640;28;20477;-80
2022/04/12 05:04:38;;;;;;;15.40;9.95;;;;;;;;;;5054802;28;20025;-78
2022/04/12 05:07:04;;;;;;;18.38;10.88;;;;;;;;;;5054314;28;20025;-79
2022/04/12 05:09:30;;;;;;;17.70;9.73;;;;;;;;;;5054746;28;20033;-80
2022/04/12 05:11:56;;;;;;;19.15;12.48;;;;;;;;;;5054453;28;20100;-79
2022/04/12 05:14:22;;;;;;;17.70;10.77;;;;;;;;;;5054596;28;20032;-80
2022/04/12 05:16:48;;;;;;;11.18;7.38;;;;;;;;;;5054629;28;20036;-78
2022/04/12 05:19:14;;;;;;;12.98;7.70;;;;;;;;;;5053804;28;20411;-80
2022/04/12 05:21:41;;;;;;;12.35;7.30;;;;;;;;;;5054368;28;20013;-79
2022/04/12 05:24:07;;;;;;;12.00;7.80;;;;;;;;;;5047963;28;20021;-81
2022/04/12 05:26:33;;;;;;;13.18;9.30;;;;;;;;;;5049961;28;20021;-81
2022/04/12 05:28:59;;;;;;;11.52;8.25;;;;;;;;;;5054233;28;20048;-79
2022/04/12 05:31:25;;;;;;;19.20;10.35;;;;;;;;;;5053962;28;20473;-77
2022/04/12 05:33:51;;;;;;;13.13;7.80;;;;;;;;;;5054059;28;20025;-78
2022/04/12 05:36:17;;;;;;;12.07;7.13;;;;;;;;;;5053456;28;20029;-77
2022/04/12 05:38:43;;;;;;;10.50;6.90;;;;;;;;;;5050824;28;20504;-80
2022/04/12 05:41:12;;;;;;;7.10;5.05;;;;;;;;;;5050169;28;20033;-79
2022/04/12 05:43:38;;;;;;;6.80;4.50;;;;;;;;;;5054075;28;20041;-77
2022/04/12 05:46:07;;;;;;;9.95;6.90;;;;;;;;;;5052219;28;20028;-79
2022/04/12 05:48:33;;;;;;;10.82;5.97;;;;;;;;;;5052629;28;20536;-81
2022/04/12 05:50:59;;;;;;;8.13;5.13;;;;;;;;;;5051509;28;20040;-77
2022/04/12 05:53:25;;;;;;;8.77;5.40;;;;;;;;;;5052399;28;20036;-77
2022/04/12 05:55:52;;;;;;;7.72;5.07;;;;;;;;;;5052092;28;20025;-79
2022/04/12 05:58:18;;;;;;;7.80;5.63;;;;;;;;;;5051553;28;20104;-81
2022/04/12 06:00:44;;;;;;;7.38;6.55;;;;;;;;;;5051788;28;20065;-77
2022/04/12 06:03:10;;;;;;;17.27;13.45;;;;;;;;;;5051599;28;20017;-76
2022/04/12 06:05:36;;;;;;;13.98;8.68;;;;;;;;;;5050620;28;20021;-78
2022/04/12 06:08:06;;;;;;;5.88;4.10;;;;;;;;;;5051495;28;20013;-77
2022/04/12 06:10:32;;;;;;;6.68;4.57;;;;;;;;;;5049048;28;20045;-77
2022/04/12 06:13:00;;;;;;;5.50;4.55;;;;;;;;;;5051330;28;20041;-77
2022/04/12 06:15:27;;;;;;;10.00;5.82;;;;;;;;;;5051925;28;20488;-79
2022/04/12 06:17:53;;;;;;;10.32;5.80;;;;;;;;;;5051887;28;20033;-80
2022/04/12 06:20:20;;;;;;;7.75;6.18;;;;;;;;;;5051679;28;20017;-79
2022/04/12 06:22:46;;;;;;;12.75;6.38;;;;;;;;;;5051184;28;20028;-79
2022/04/12 06:25:14;;;;;;;14.75;6.90;;;;;;;;;;5051593;28;20021;-77
2022/04/12 06:27:42;;;;;;;6.53;5.03;;;;;;;;;;5051375;28;20051;-77
2022/04/12 06:30:10;;;;;;;7.57;4.40;;;;;;;;;;5051406;28;20044;-77
2022/04/12 06:32:36;;;;;;;5.93;4.30;;;;;;;;;;5050447;28;20056;-78
2022/04/12 06:35:04;;;;;;;5.38;3.85;;;;;;;;;;5051216;28;20021;-78
2022/04/12 06:37:30;;;;;;;5.55;4.10;;;;;;;;;;5050648;28;20481;-81
2022/04/12 06:39:57;;;;;;;6.75;4.57;;;;;;;;;;5051379;28;20377;-79
2022/04/12 06:42:24;;;;;;;12.55;9.43;;;;;;;;;;5051095;28;20476;-79
2022/04/12 06:44:50;;;;;;;64.88;38.28;;;;;;;;;;5050919;28;20037;-77
2022/04/12 06:47:16;;;;;;;75.72;55.72;;;;;;;;;;5049997;28;20120;-78
2022/04/12 06:50:01;;;;;;;33.97;23.95;;;;;;;;;;5051169;28;20025;-80
2022/04/12 06:52:27;;;;;;;;;;;;;;;;;;5050048;28;20031;-80
2022/04/12 06:54:53;;;;;;;10.20;5.03;;;;;;;;;;5050878;28;19909;-78
2022/04/12 06:57:20;;;;;;;9.35;6.53;;;;;;;;;;5051134;28;20056;-81
2022/04/12 06:59:46;;;;;;;7.88;4.57;;;;;;;;;;5050483;28;20056;-83
2022/04/12 07:02:14;;;;;;;6.60;4.78;;;;;;;;;;5050542;28;20074;-81
2022/04/12 07:04:40;;;;;;;10.95;5.90;;;;;;;;;;5050724;28;20025;-80
2022/04/12 07:07:06;;;;;;;9.88;4.97;;;;;;;;;;5050319;28;20111;-81
2022/04/12 07:09:33;;;;;;;10.48;5.97;;;;;;;;;;5049390;28;20028;-80
2022/04/12 07:12:00;;;;;;;9.38;4.85;;;;;;;;;;5050130;28;20028;-80
2022/04/12 07:14:29;;;;;;;9.25;4.93;;;;;;;;;;5050956;28;20033;-77
2022/04/12 07:16:55;;;;;;;9.32;5.88;;;;;;;;;;5050523;28;20029;-79
2022/04/12 07:19:21;;;;;;;10.55;4.88;;;;;;;;;;5050315;28;20784;-78
2022/04/12 07:21:48;;;;;;;11.98;6.25;;;;;;;;;;5049901;28;20025;-79
2022/04/12 07:24:14;;;;;;;6.50;4.10;;;;;;;;;;5050675;28;20092;-79
2022/04/12 07:26:43;;;;;;;8.90;5.57;;;;;;;;;;5050051;28;20906;-79
2022/04/12 07:29:09;;;;;;;8.13;4.90;;;;;;;;;;5048794;28;20021;-77
2022/04/12 07:31:35;;;;;;;8.43;4.82;;;;;;;;;;5050031;28;20017;-77
2022/04/12 07:34:01;;;;;;;5.93;4.55;;;;;;;;;;5048511;28;20055;-77
2022/04/12 07:36:27;;;;;;;7.60;5.20;;;;;;;;;;5050874;28;20120;-76
2022/04/12 07:38:59;;;;;;;8.80;4.68;;;;;;;;;;5050402;28;20024;-77
2022/04/12 07:41:33;;;;;;;12.15;5.13;;;;;;;;;;5051179;28;20143;-79
2022/04/12 07:47:01;;;;;;;;;;;;;;;;;;;;;
2022/04/12 07:49:31;;;;;;;12.68;8.65;;;;;;;;;;5050365;28;20388;-82
2022/04/12 07:51:57;;;;;;;10.90;5.55;;;;;;;;;;5049718;28;20036;-81
2022/04/12 07:54:23;;;;;;;19.50;8.02;;;;;;;;;;5050790;28;20025;-82
2022/04/12 07:56:49;;;;;;;40.38;13.65;;;;;;;;;;5050252;28;20426;-81
2022/04/12 07:59:15;;;;;;;12.27;5.53;;;;;;;;;;5050329;28;20407;-82
2022/04/12 08:01:41;;;;;;;31.83;11.77;;;;;;;;;;5049061;28;20036;-82
2022/04/12 08:04:19;;;;;;;7.07;3.17;;;;;;;;;;5050433;28;20530;-83
2022/04/12 08:06:45;;;;;;;10.30;4.53;;;;;;;;;;5049889;28;20074;-80
2022/04/12 08:09:19;;;;;;;8.32;3.70;;;;;;;;;;5048764;28;20025;-84
2022/04/12 08:11:45;;;;;;;37.47;15.25;;;;;;;;;;5050531;28;20361;-82
2022/04/12 08:14:11;;;;;;;9.10;4.63;;;;;;;;;;5050367;28;20060;-81
2022/04/12 08:16:47;;;;;;;6.68;3.20;;;;;;;;;;5050938;28;20071;-82
2022/04/12 08:19:14;;;;;;;8.82;3.15;;;;;;;;;;5050354;28;20036;-80
2022/04/12 08:21:41;;;;;;;6.47;3.40;;;;;;;;;;5054317;28;20029;-79
2022/04/12 08:24:08;;;;;;;24.38;8.50;;;;;;;;;;5054382;28;20020;-81
2022/04/12 08:26:34;;;;;;;5.07;2.85;;;;;;;;;;5054187;28;20032;-79
2022/04/12 08:29:00;;;;;;;3.78;2.53;;;;;;;;;;5053977;28;20028;-82
2022/04/12 08:31:30;;;;;;;13.13;4.63;;;;;;;;;;5054385;28;20048;-83
2022/04/12 08:33:56;;;;;;;7.55;3.20;;;;;;;;;;5050468;28;20067;-81
2022/04/12 08:36:22;;;;;;;5.53;2.65;;;;;;;;;;5053532;28;20051;-82
2022/04/12 08:38:51;;;;;;;3.90;2.03;;;;;;;;;;5053332;28;20120;-81
2022/04/12 08:41:18;;;;;;;4.20;2.60;;;;;;;;;;5053769;28;20025;-79
2022/04/12 08:43:44;;;;;;;5.28;1.95;;;;;;;;;;5053316;28;20029;-82
2022/04/12 08:46:11;;;;;;;8.15;3.20;;;;;;;;;;5053312;28;20024;-84
2022/04/12 08:48:38;;;;;;;5.78;2.10;;;;;;;;;;5053938;28;20025;-84
2022/04/12 08:51:04;;;;;;;4.25;2.38;;;;;;;;;;5053626;28;20029;-82
2022/04/12 08:53:31;;;;;;;5.22;2.08;;;;;;;;;;5053395;28;20025;-82
2022/04/12 08:55:57;;;;;;;3.33;1.42;;;;;;;;;;5053660;28;20033;-83
2022/04/12 08:58:24;;;;;;;3.33;1.70;;;;;;;;;;5053090;28;20036;-81
2022/04/12 09:00:50;;;;;;;8.05;3.50;;;;;;;;;;5053658;28;20591;-81
2022/04/12 09:03:19;;;;;;;5.35;2.17;;;;;;;;;;5053399;28;20098;-82
2022/04/12 09:05:45;;;;;;;6.25;2.03;;;;;;;;;;5052185;28;20381;-79
2022/04/12 09:08:32;;;;;;;4.53;2.70;;;;;;;;;;5052768;28;20468;-78
2022/04/12 09:11:12;;;;;;;11.98;6.65;;;;;;;;;;5053513;28;20029;-83
2022/04/12 09:16:56;;;;;;;3.33;1.93;;;;;;;;;;5021766;28;20036;-82
2022/04/12 09:22:42;;;;;;;5.35;2.72;;;;;;;;;;4991105;28;20034;-84
2022/04/12 09:25:20;;;;;;;68.72;26.63;;;;;;;;;;4974944;28;20040;-83
2022/04/12 09:28:02;;;;;;;15.90;7.65;;;;;;;;;;5035179;28;20558;-83
2022/04/12 09:30:31;;;;;;;40.40;17.27;;;;;;;;;;5052673;28;20041;-84
2022/04/12 09:33:02;;;;;;;89.47;31.05;;;;;;;;;;5050579;28;20033;-82
2022/04/12 09:35:28;;;;;;;184.90;57.33;;;;;;;;;;5050453;28;20033;-82
2022/04/12 09:37:54;;;;;;;218.27;65.15;;;;;;;;;;5050487;28;20478;-80
2022/04/12 09:40:20;;;;;;;197.20;60.90;;;;;;;;;;5042074;28;20047;-81
2022/04/12 09:42:50;;;;;;;245.10;71.78;;;;;;;;;;5047863;28;20033;-82
2022/04/12 09:45:27;;;;;;;162.20;50.47;;;;;;;;;;5046667;28;20480;-79
2022/04/12 09:47:54;;;;;;;147.18;49.03;;;;;;;;;;5051773;28;20036;-79
2022/04/12 09:50:21;;;;;;;7.85;3.63;;;;;;;;;;5051958;28;20036;-83
2022/04/12 09:52:57;;;;;;;79.20;26.50;;;;;;;;;;5051801;28;20056;-81
2022/04/12 09:55:42;;;;;;;74.72;24.20;;;;;;;;;;5051772;28;20031;-80
2022/04/12 09:58:11;;;;;;;71.03;20.92;;;;;;;;;;5051928;28;20025;-80
2022/04/12 10:00:42;;;;;;;47.63;15.73;;;;;;;;;;5051434;28;20053;-76
2022/04/12 10:03:09;;;;;;;23.48;9.77;;;;;;;;;;5051519;28;20028;-78
2022/04/12 10:05:36;;;;;;;15.82;6.05;;;;;;;;;;5050705;28;20055;-78
2022/04/12 10:08:04;;;;;;;9.90;6.80;;;;;;;;;;5051283;28;20543;-76
2022/04/12 10:10:30;;;;;;;9.25;3.88;;;;;;;;;;5050880;28;20032;-80
2022/04/12 10:12:57;;;;;;;8.60;3.15;;;;;;;;;;5051361;28;20067;-79
2022/04/12 10:15:24;;;;;;;5.97;2.53;;;;;;;;;;5051138;28;20488;-78
2022/04/12 10:17:53;;;;;;;5.93;1.95;;;;;;;;;;5043083;28;20100;-82
2022/04/12 10:20:20;;;;;;;4.50;2.20;;;;;;;;;;5032474;28;20021;-84
2022/04/12 10:22:47;;;;;;;2.45;1.50;;;;;;;;;;5031850;28;20036;-82
2022/04/12 10:25:31;;;;;;;3.40;1.75;;;;;;;;;;5032211;28;20041;-81
2022/04/12 10:27:58;;;;;;;3.88;1.63;;;;;;;;;;5036352;28;20107;-84
2022/04/12 10:30:30;;;;;;;3.65;1.70;;;;;;;;;;5045632;28;20033;-82
2022/04/12 10:33:15;;;;;;;3.45;2.03;;;;;;;;;;5051446;28;20033;-81
2022/04/12 10:35:47;;;;;;;4.32;2.08;;;;;;;;;;5050321;28;20041;-78
2022/04/12 10:38:14;;;;;;;5.05;1.77;;;;;;;;;;5051122;28;20044;-78
2022/04/12 10:40:44;;;;;;;5.22;2.92;;;;;;;;;;5051270;28;20079;-78
2022/04/12 10:43:14;;;;;;;3.58;2.28;;;;;;;;;;5051100;28;20530;-80
2022/04/12 10:45:59;;;;;;;3.15;1.58;;;;;;;;;;5051217;28;20535;-79
2022/04/12 10:48:26;;;;;;;;;;;;;;;;;;5052111;28;20448;-81
2022/04/12 10:50:53;;;;;;;3.03;1.00;;;;;;;;;;5051337;28;20432;-80
2022/04/12 10:53:38;;;;;;;5.15;1.42;;;;;;;;;;5051233;28;20770;-79
2022/04/12 10:56:25;;;;;;;2.20;1.30;;;;;;;;;;5051536;28;20041;-80
2022/04/12 10:58:51;;;;;;;6.50;1.42;;;;;;;;;;5047328;28;20510;-79
2022/04/12 11:01:35;;;;;;;4.70;1.58;;;;;;;;;;5050248;28;20056;-79
2022/04/12 11:04:02;;;;;;;4.97;1.40;;;;;;;;;;5050966;28;20568;-80
2022/04/12 11:06:30;;;;;;;7.85;4.45;;;;;;;;;;5050826;28;20445;-78
2022/04/12 11:09:17;;;;;;;6.70;4.00;;;;;;;;;;5050405;28;20140;-80
2022/04/12 11:11:52;;;;;;;5.88;2.30;;;;;;;;;;5050512;28;20054;-78
2022/04/12 11:14:32;;;;;;;6.28;3.00;;;;;;;;;;5050555;28;20032;-79
2022/04/12 11:17:01;;;;;;;4.30;2.17;;;;;;;;;;5050013;28;20029;-86
2022/04/12 11:19:27;;;;;;;3.20;1.50;;;;;;;;;;5049826;28;20029;-78
2022/04/12 11:21:57;;;;;;;2.92;1.77;;;;;;;;;;5048730;28;20032;-83
2022/04/12 11:24:24;;;;;;;4.70;1.83;;;;;;;;;;5040837;28;20036;-81
2022/04/12 11:27:08;;;;;;;4.53;1.80;;;;;;;;;;5048787;28;20522;-84
2022/04/12 11:29:39;;;;;;;4.88;1.88;;;;;;;;;;5049224;28;20017;-85
2022/04/12 11:32:23;;;;;;;2.33;1.10;;;;;;;;;;5049878;28;20094;-82
2022/04/12 11:34:52;;;;;;;2.60;1.25;;;;;;;;;;5052000;28;20056;-88
2022/04/12 11:37:18;;;;;;;3.13;1.58;;;;;;;;;;5050471;28;20075;-80
2022/04/12 11:39:45;;;;;;;2.80;1.50;;;;;;;;;;5049504;28;20025;-81
2022/04/12 11:42:12;;;;;;;2.03;1.00;;;;;;;;;;5049260;28;20033;-79
2022/04/12 11:44:38;;;;;;;3.70;0.95;;;;;;;;;;5050143;28;20553;-79
2022/04/12 11:47:08;;;;;;;2.30;1.13;;;;;;;;;;5049868;28;20025;-76
2022/04/12 11:49:39;;;;;;;15.23;10.82;;;;;;;;;;5048221;28;20039;-79
2022/04/12 11:52:06;;;;;;;3.78;0.80;;;;;;;;;;5053784;28;20688;-80
2022/04/12 11:54:34;;;;;;;3.75;2.00;;;;;;;;;;5058862;28;20035;-83
2022/04/12 11:57:04;;;;;;;6.55;2.00;;;;;;;;;;5050284;28;20040;-79
2022/04/12 11:59:31;;;;;;;2.22;0.88;;;;;;;;;;5054363;28;20104;-81
2022/04/12 12:01:59;;;;;;;2.65;1.08;;;;;;;;;;5055724;28;20495;-79
2022/04/12 12:04:29;;;;;;;3.17;1.15;;;;;;;;;;5054555;28;20102;-82
2022/04/12 12:07:14;;;;;;;2.85;1.00;;;;;;;;;;5052924;28;20025;-82
2022/04/12 12:09:50;;;;;;;3.05;1.30;;;;;;;;;;5053121;28;20133;-79
2022/04/12 12:12:17;;;;;;;1.83;0.90;;;;;;;;;;5053993;28;20028;-81
2022/04/12 12:14:43;;;;;;;2.40;1.00;;;;;;;;;;5052902;28;20519;-82
2022/04/12 12:17:12;;;;;;;2.67;0.98;;;;;;;;;;5053152;28;20111;-78
2022/04/12 12:19:39;;;;;;;2.83;0.90;;;;;;;;;;5051933;28;20033;-82
2022/04/12 12:22:06;;;;;;;17.00;11.13;;;;;;;;;;5046579;28;20086;-80
2022/04/12 12:24:37;;;;;;;2.38;1.13;;;;;;;;;;5054746;28;20025;-76
2022/04/12 12:27:03;;;;;;;2.25;1.05;;;;;;;;;;5054328;28;20052;-79
2022/04/12 12:29:30;;;;;;;2.63;1.02;;;;;;;;;;5053999;28;20028;-85
2022/04/12 12:31:57;;;;;;;5.82;1.33;;;;;;;;;;5054545;28;20060;-82
2022/04/12 12:34:27;;;;;;;2.58;1.00;;;;;;;;;;5052872;28;20506;-82
2022/04/12 12:36:53;;;;;;;3.67;1.08;;;;;;;;;;5054606;28;20029;-85
2022/04/12 12:39:20;;;;;;;1.63;0.73;;;;;;;;;;5058433;28;20480;-79
2022/04/12 12:41:46;;;;;;;3.22;1.63;;;;;;;;;;5054256;28;20113;-81
2022/04/12 12:44:13;;;;;;;3.30;1.10;;;;;;;;;;5053913;28;20068;-80
2022/04/12 12:46:39;;;;;;;2.25;1.23;;;;;;;;;;5053393;28;20033;-81
2022/04/12 12:49:09;;;;;;;3.30;1.50;;;;;;;;;;5052307;28;20369;-78
2022/04/12 12:51:37;;;;;;;2.83;1.00;;;;;;;;;;5053210;28;20100;-77
2022/04/12 12:54:03;;;;;;;2.20;0.90;;;;;;;;;;5054137;28;20036;-78
2022/04/12 12:56:48;;;;;;;2.70;1.00;;;;;;;;;;5053292;28;20060;-77
2022/04/12 12:59:15;;;;;;;3.05;1.23;;;;;;;;;;5053099;28;20103;-80
2022/04/12 13:01:45;;;;;;;3.58;1.13;;;;;;;;;;5053032;28;20467;-77
2022/04/12 13:04:23;;;;;;;4.03;1.40;;;;;;;;;;5053705;28;20025;-78
2022/04/12 13:07:00;;;;;;;3.80;1.13;;;;;;;;;;5053820;28;20025;-80
2022/04/12 13:09:26;;;;;;;2.88;1.30;;;;;;;;;;5053332;28;20379;-78
2022/04/12 13:11:52;;;;;;;3.78;1.40;;;;;;;;;;5053382;28;20085;-80
2022/04/12 13:14:18;;;;;;;2.75;1.58;;;;;;;;;;5053224;28;20066;-80
2022/04/12 13:16:44;;;;;;;3.90;1.75;;;;;;;;;;5053974;28;20495;-80
2022/04/12 13:19:10;;;;;;;6.95;1.88;;;;;;;;;;5047191;28;20021;-79
2022/04/12 13:21:36;;;;;;;3.25;1.30;;;;;;;;;;5053717;28;20467;-79
2022/04/12 13:24:02;;;;;;;4.53;1.42;;;;;;;;;;5053837;28;20021;-78
2022/04/12 13:26:28;;;;;;;3.22;1.10;;;;;;;;;;5053330;28;20041;-79
2022/04/12 13:28:54;;;;;;;7.38;2.00;;;;;;;;;;5052929;28;20030;-78
2022/04/12 13:31:21;;;;;;;1.63;1.20;;;;;;;;;;5053349;28;20029;-80
2022/04/12 13:33:47;;;;;;;3.78;1.92;;;;;;;;;;5053418;28;20660;-79
2022/04/12 13:36:13;;;;;;;3.25;1.17;;;;;;;;;;5053498;28;20029;-79
2022/04/12 13:38:39;;;;;;;2.00;1.00;;;;;;;;;;5053828;28;20025;-82
2022/04/12 13:41:05;;;;;;;2.65;1.20;;;;;;;;;;5052379;28;20036;-79
2022/04/12 13:43:32;;;;;;;2.97;1.63;;;;;;;;;;5053887;28;20060;-79
2022/04/12 13:46:00;;;;;;;3.20;1.67;;;;;;;;;;5053681;28;20029;-84
2022/04/12 13:48:28;;;;;;;3.67;1.25;;;;;;;;;;5051533;28;20539;-81
2022/04/12 13:50:54;;;;;;;3.58;1.70;;;;;;;;;;5052270;28;20112;-78
2022/04/12 13:53:20;;;;;;;2.88;1.35;;;;;;;;;;5053779;28;20035;-80
2022/04/12 13:55:46;;;;;;;4.15;1.20;;;;;;;;;;5053243;28;20032;-79
2022/04/12 13:58:13;;;;;;;3.58;1.33;;;;;;;;;;5053739;28;20488;-77
2022/04/12 14:00:40;;;;;;;4.72;2.65;;;;;;;;;;5045366;28;20049;-78
2022/04/12 14:03:07;;;;;;;9.05;5.18;;;;;;;;;;5049646;28;20365;-79
2022/04/12 14:05:33;;;;;;;4.68;2.28;;;;;;;;;;5059321;28;20116;-77
2022/04/12 14:08:10;;;;;;;4.15;1.67;;;;;;;;;;5051607;28;20032;-79
2022/04/12 14:10:36;;;;;;;4.60;1.65;;;;;;;;;;5033571;28;20032;-77
2022/04/12 14:13:02;;;;;;;4.75;2.55;;;;;;;;;;5033477;28;20027;-77
2022/04/12 14:15:28;;;;;;;4.50;1.67;;;;;;;;;;5033715;28;20424;-77
2022/04/12 14:17:54;;;;;;;3.33;1.67;;;;;;;;;;5032742;28;20030;-78
2022/04/12 14:20:20;;;;;;;5.75;3.05;;;;;;;;;;5033438;28;20033;-77
2022/04/12 14:22:46;;;;;;;14.00;4.60;;;;;;;;;;5033990;28;20022;-78
2022/04/12 14:25:12;;;;;;;17.33;7.20;;;;;;;;;;5032928;28;20554;-80
2022/04/12 14:27:39;;;;;;;5.68;1.88;;;;;;;;;;5033476;28;20029;-83
2022/04/12 14:30:05;;;;;;;7.80;3.25;;;;;;;;;;5031845;28;20440;-81
2022/04/12 14:32:31;;;;;;;5.15;2.42;;;;;;;;;;5033087;28;20113;-78
2022/04/12 14:34:57;;;;;;;6.30;2.33;;;;;;;;;;5033133;28;20481;-77
2022/04/12 14:37:23;;;;;;;5.25;2.30;;;;;;;;;;5033503;28;20030;-80
2022/04/12 14:39:50;;;;;;;4.47;2.03;;;;;;;;;;5032642;28;20022;-78
2022/04/12 14:42:16;;;;;;;5.78;3.60;;;;;;;;;;5037748;28;20059;-80
2022/04/12 14:44:42;;;;;;;5.07;1.77;;;;;;;;;;5047542;28;20028;-80
2022/04/12 14:47:08;;;;;;;3.05;1.83;;;;;;;;;;5053164;28;20021;-78
2022/04/12 14:49:34;;;;;;;8.85;5.15;;;;;;;;;;5052766;28;20438;-82
2022/04/12 14:52:00;;;;;;;5.32;2.15;;;;;;;;;;5051151;28;20032;-78
2022/04/12 14:54:27;;;;;;;1.75;1.20;;;;;;;;;;5051535;28;20062;-78